Terminal Aerodrome Forecast
Issued by NWS Wakefield, VA

Home | Current Version | Previous Version | Text Only | Print | Product List | Glossary On
Versions: 1 2 3 4 5 6 7 8 9 10 11 12 13 14 15 16 17 18 19 20 21
000
FTUS41 KAKQ 220500 CCA
TAFSBY
TAF COR
KSBY 220558Z 2206/2306 00000KT P6SM SCT020
     FM220700 00000KT 4SM BR SCT007 OVC012
      TEMPO 2208/2210 2SM BR BKN007
     FM221300 12003KT P6SM BKN015
     FM221700 14007KT P6SM SCT025 BKN100
     FM230000 17006KT P6SM OVC250=

USA.gov is the U.S. government's official web portal to all federal, state and local government web resources and services.